createdAt,value
2018-03-27T00:02:12.374Z,39.83
2018-03-27T00:04:39.829Z,36.92
2018-03-27T00:07:07.302Z,37.55
2018-03-27T00:09:34.771Z,39.45
2018-03-27T00:12:02.249Z,40.65
2018-03-27T00:14:29.743Z,33.22
2018-03-27T00:16:57.209Z,38.20
2018-03-27T00:19:25.437Z,35.92
2018-03-27T00:21:52.914Z,34.95
2018-03-27T00:24:20.398Z,41.45
2018-03-27T00:26:59.693Z,47.85
2018-03-27T00:29:38.857Z,41.58
2018-03-27T00:32:18.101Z,40.38
2018-03-27T00:34:57.942Z,32.67
2018-03-27T00:37:38.146Z,37.40
2018-03-27T00:40:17.414Z,36.47
2018-03-27T00:42:51.495Z,35.83
2018-03-27T00:45:18.998Z,39.90
2018-03-27T00:47:46.472Z,42.70
2018-03-27T00:50:13.928Z,38.53
2018-03-27T00:52:41.410Z,37.83
2018-03-27T00:55:08.870Z,37.65
2018-03-27T00:57:36.354Z,39.72
2018-03-27T01:00:03.831Z,40.42
2018-03-27T01:02:31.306Z,42.50
2018-03-27T01:05:04.341Z,43.20
2018-03-27T01:07:31.794Z,39.47
2018-03-27T01:09:59.266Z,44.22
2018-03-27T01:12:26.743Z,42.42
2018-03-27T01:14:54.205Z,44.03
2018-03-27T01:17:21.666Z,42.65
2018-03-27T01:19:49.133Z,43.00
2018-03-27T01:22:17.378Z,45.97
2018-03-27T01:24:44.854Z,43.80
2018-03-27T01:27:12.312Z,54.22
2018-03-27T01:29:40.563Z,51.97
2018-03-27T01:32:08.038Z,44.45
2018-03-27T01:34:35.502Z,44.25
2018-03-27T01:37:02.956Z,39.78
2018-03-27T01:39:30.676Z,42.90
2018-03-27T01:41:58.140Z,43.28
2018-03-27T01:44:25.637Z,39.53
2018-03-27T01:46:53.077Z,37.78
2018-03-27T01:49:20.563Z,41.63
2018-03-27T01:51:48.811Z,39.35
2018-03-27T01:54:16.288Z,39.97
2018-03-27T01:56:43.770Z,38.33
2018-03-27T01:59:11.269Z,38.97
2018-03-27T02:01:38.755Z,36.58
2018-03-27T02:04:07.018Z,40.05
2018-03-27T02:06:34.537Z,32.33
2018-03-27T02:09:02.774Z,39.28
2018-03-27T02:11:35.855Z,36.80
2018-03-27T02:14:08.897Z,32.75
2018-03-27T02:16:42.051Z,41.30
2018-03-27T02:19:14.971Z,33.13
2018-03-27T02:21:41.975Z,38.25
2018-03-27T02:24:11.137Z,35.40
2018-03-27T02:26:38.677Z,41.22
2018-03-27T02:29:06.176Z,36.25
2018-03-27T02:31:33.629Z,39.35
2018-03-27T02:34:01.183Z,36.65
2018-03-27T02:36:28.646Z,31.87
2018-03-27T02:38:56.141Z,31.90
2018-03-27T02:41:23.642Z,32.00
2018-03-27T02:43:51.126Z,36.83
2018-03-27T02:46:18.599Z,34.15
2018-03-27T02:48:46.859Z,34.05
2018-03-27T02:51:14.348Z,37.67
2018-03-27T02:53:41.870Z,33.85
2018-03-27T02:56:09.395Z,32.25
2018-03-27T02:58:36.858Z,32.45
2018-03-27T03:01:04.358Z,34.60
2018-03-27T03:03:31.878Z,31.58
2018-03-27T03:05:59.340Z,33.80
2018-03-27T03:08:26.789Z,32.75
2018-03-27T03:10:54.269Z,33.75
2018-03-27T03:13:21.715Z,35.50
2018-03-27T03:15:49.174Z,34.85
2018-03-27T03:18:16.654Z,33.58
2018-03-27T03:20:44.111Z,35.17
2018-03-27T03:23:11.570Z,30.58
2018-03-27T03:25:39.041Z,35.25
2018-03-27T03:28:06.486Z,34.85
2018-03-27T03:30:33.958Z,34.85
2018-03-27T03:33:01.439Z,31.05
2018-03-27T03:35:29.678Z,31.15
2018-03-27T03:37:57.134Z,34.72
2018-03-27T03:40:24.589Z,34.22
2018-03-27T03:42:52.821Z,33.38
2018-03-27T03:45:20.282Z,33.65
2018-03-27T03:47:47.764Z,29.48
2018-03-27T03:50:15.206Z,30.25
2018-03-27T03:52:42.698Z,30.92
2018-03-27T03:55:10.158Z,31.05
2018-03-27T03:57:37.644Z,32.05
2018-03-27T04:00:05.121Z,31.48
2018-03-27T04:02:32.582Z,33.08
2018-03-27T04:05:00.064Z,33.42
2018-03-27T04:07:28.322Z,35.95
2018-03-27T04:09:55.799Z,33.00
2018-03-27T04:12:24.053Z,37.50
2018-03-27T04:14:51.502Z,37.03
2018-03-27T04:17:18.988Z,37.38
2018-03-27T04:19:47.224Z,40.45
2018-03-27T04:22:14.716Z,43.47
2018-03-27T04:24:42.942Z,45.97
2018-03-27T04:27:10.447Z,40.90
2018-03-27T04:29:37.982Z,48.30
2018-03-27T04:32:05.474Z,45.42
2018-03-27T04:34:33.716Z,43.40
2018-03-27T04:37:01.181Z,49.72
2018-03-27T04:39:28.648Z,46.90
2018-03-27T04:41:56.171Z,56.88
2018-03-27T04:44:23.673Z,51.22
2018-03-27T04:46:51.945Z,52.72
2018-03-27T04:49:20.199Z,54.92
2018-03-27T04:51:47.682Z,59.15
2018-03-27T04:54:15.187Z,52.35
2018-03-27T04:56:42.653Z,56.75
2018-03-27T04:59:10.202Z,64.65
2018-03-27T05:01:37.670Z,60.20
2018-03-27T05:04:05.885Z,49.97
2018-03-27T05:06:33.384Z,53.22
2018-03-27T05:09:00.874Z,54.92
2018-03-27T05:11:28.350Z,59.08
2018-03-27T05:13:55.831Z,56.78
2018-03-27T05:16:23.334Z,62.83
2018-03-27T05:18:50.838Z,57.58
2018-03-27T05:21:19.102Z,63.10
2018-03-27T05:23:46.669Z,56.45
2018-03-27T05:29:04.675Z,56.00
2018-03-27T05:31:32.150Z,54.45
2018-03-27T05:33:59.643Z,61.13
2018-03-27T05:36:27.911Z,61.88
2018-03-27T05:38:56.197Z,60.22
2018-03-27T05:41:24.443Z,56.42
2018-03-27T05:43:51.946Z,59.35
2018-03-27T05:46:19.461Z,71.18
2018-03-27T05:48:47.767Z,62.95
2018-03-27T05:51:16.016Z,58.85
2018-03-27T05:53:44.291Z,62.38
2018-03-27T05:56:11.772Z,67.55
2018-03-27T05:58:39.276Z,69.03
2018-03-27T06:01:06.808Z,73.22
2018-03-27T06:03:36.981Z,67.40
2018-03-27T06:06:05.315Z,68.68
2018-03-27T06:08:32.848Z,62.40
2018-03-27T06:11:01.105Z,59.60
2018-03-27T06:13:29.402Z,72.90
2018-03-27T06:15:56.889Z,63.42
2018-03-27T06:18:24.410Z,62.70
2018-03-27T06:20:52.107Z,68.82
2018-03-27T06:23:19.608Z,70.80
2018-03-27T06:25:47.152Z,73.43
2018-03-27T06:28:14.648Z,62.00
2018-03-27T06:30:42.162Z,72.22
2018-03-27T06:33:09.734Z,74.10
2018-03-27T06:35:37.403Z,67.62
2018-03-27T06:38:05.049Z,63.85
2018-03-27T06:40:32.534Z,61.53
2018-03-27T06:43:00.023Z,64.05
2018-03-27T06:45:27.500Z,65.22
2018-03-27T06:47:55.011Z,58.42
2018-03-27T06:50:23.270Z,61.03
2018-03-27T06:52:50.838Z,57.38
2018-03-27T06:55:18.277Z,54.58
2018-03-27T06:57:45.875Z,54.42
2018-03-27T07:00:13.403Z,55.47
2018-03-27T07:02:40.871Z,53.95
2018-03-27T07:05:08.590Z,51.50
2018-03-27T07:07:36.123Z,51.88
2018-03-27T07:10:03.739Z,45.35
2018-03-27T07:12:31.259Z,49.10
2018-03-27T07:14:58.928Z,49.30
2018-03-27T07:17:26.429Z,51.00
2018-03-27T07:19:53.935Z,42.30
2018-03-27T07:22:21.422Z,46.63
2018-03-27T07:24:48.874Z,45.67
2018-03-27T07:27:16.454Z,47.90
2018-03-27T07:29:43.926Z,44.40
2018-03-27T07:32:11.426Z,40.75
2018-03-27T07:34:38.959Z,46.03
2018-03-27T07:37:06.457Z,43.42
2018-03-27T07:39:33.984Z,47.92
2018-03-27T07:42:01.524Z,47.00
2018-03-27T07:44:30.914Z,42.38
2018-03-27T07:46:58.490Z,46.83
2018-03-27T07:49:26.840Z,42.25
2018-03-27T07:51:55.410Z,38.08
2018-03-27T07:54:23.027Z,42.62
2018-03-27T07:56:50.623Z,38.10
2018-03-27T07:59:18.116Z,41.20
2018-03-27T08:01:45.589Z,40.47
2018-03-27T08:04:13.193Z,40.55
2018-03-27T08:06:40.717Z,35.75
2018-03-27T08:09:08.340Z,35.53
2018-03-27T08:11:35.838Z,36.78
2018-03-27T08:14:03.297Z,35.00
2018-03-27T08:16:30.946Z,31.85
2018-03-27T08:19:01.512Z,35.20
2018-03-27T08:21:31.357Z,31.77
2018-03-27T08:24:01.032Z,32.28
2018-03-27T08:26:28.721Z,29.35
2018-03-27T08:29:00.363Z,33.53
2018-03-27T08:31:29.559Z,33.47
2018-03-27T08:33:58.072Z,32.78
2018-03-27T08:36:25.872Z,28.40
2018-03-27T08:38:53.347Z,28.42
2018-03-27T08:41:20.995Z,31.00
2018-03-27T08:43:48.679Z,29.55
2018-03-27T08:46:17.329Z,31.60
2018-03-27T08:48:47.497Z,31.30
2018-03-27T08:51:15.183Z,27.73
2018-03-27T08:53:43.595Z,30.08
2018-03-27T08:56:15.967Z,31.77
2018-03-27T08:58:43.720Z,28.70
2018-03-27T09:01:12.782Z,26.60
2018-03-27T09:03:41.161Z,26.48
2018-03-27T09:06:08.725Z,27.80
2018-03-27T09:08:36.959Z,22.00
2018-03-27T09:11:04.544Z,23.50
2018-03-27T09:13:32.133Z,27.05
2018-03-27T09:15:59.842Z,28.25
2018-03-27T09:18:27.443Z,26.65
2018-03-27T09:20:56.118Z,26.80
2018-03-27T09:23:24.536Z,30.98
2018-03-27T09:25:52.938Z,26.50
2018-03-27T09:28:20.545Z,25.83
2018-03-27T09:30:48.076Z,27.08
2018-03-27T09:33:15.792Z,27.25
2018-03-27T09:35:43.287Z,29.10
2018-03-27T09:38:10.804Z,26.30
2018-03-27T09:40:38.363Z,32.00
2018-03-27T09:43:06.627Z,25.37
2018-03-27T09:45:34.963Z,25.62
2018-03-27T09:48:02.386Z,24.37
2018-03-27T09:50:29.962Z,26.85
2018-03-27T09:52:57.485Z,25.23
2018-03-27T09:55:25.044Z,27.70
2018-03-27T09:57:52.685Z,28.48
2018-03-27T10:00:25.971Z,28.48
2018-03-27T10:02:53.477Z,24.17
2018-03-27T10:05:20.982Z,29.02
2018-03-27T10:07:48.579Z,24.23
2018-03-27T10:10:17.088Z,24.35
2018-03-27T10:12:44.627Z,22.77
2018-03-27T10:15:12.119Z,27.90
2018-03-27T10:17:39.632Z,25.20
2018-03-27T10:20:07.890Z,18.90
2018-03-27T10:22:35.399Z,22.75
2018-03-27T10:25:02.879Z,21.48
2018-03-27T10:27:30.373Z,18.15
2018-03-27T10:29:57.899Z,16.42
2018-03-27T10:32:25.430Z,15.40
2018-03-27T10:34:52.951Z,12.73
2018-03-27T10:37:20.455Z,20.37
2018-03-27T10:39:48.704Z,16.45
2018-03-27T10:42:16.219Z,21.92
2018-03-27T10:44:43.738Z,17.23
2018-03-27T10:47:11.266Z,14.90
2018-03-27T10:49:39.532Z,14.07
2018-03-27T10:52:07.016Z,14.50
2018-03-27T10:54:34.518Z,18.30
2018-03-27T10:57:02.012Z,12.00
2018-03-27T10:59:29.518Z,14.93
2018-03-27T11:01:57.047Z,11.40
2018-03-27T11:04:24.515Z,12.80
2018-03-27T11:06:52.053Z,12.05
2018-03-27T11:09:19.559Z,13.30
2018-03-27T11:11:47.150Z,9.93
2018-03-27T11:14:15.392Z,11.32
2018-03-27T11:16:42.908Z,11.30
2018-03-27T11:19:10.396Z,13.35
2018-03-27T11:21:39.220Z,10.68
2018-03-27T11:24:06.736Z,12.57
2018-03-27T11:26:34.266Z,8.60
2018-03-27T11:29:02.661Z,12.50
2018-03-27T11:31:30.351Z,8.73
2018-03-27T11:33:58.107Z,8.30
2018-03-27T11:36:25.651Z,10.75
2018-03-27T11:38:53.193Z,9.88
2018-03-27T11:41:20.748Z,8.75
2018-03-27T11:43:48.289Z,9.52
2018-03-27T11:46:16.662Z,9.30
2018-03-27T11:48:44.172Z,9.10
2018-03-27T11:51:11.664Z,7.57
2018-03-27T11:53:39.168Z,7.15
2018-03-27T11:56:06.710Z,7.72
2018-03-27T11:58:34.183Z,10.32
2018-03-27T12:01:01.697Z,7.40
2018-03-27T12:03:29.217Z,9.20
2018-03-27T12:05:56.755Z,9.20
2018-03-27T12:08:24.481Z,8.65
2018-03-27T12:10:52.176Z,8.30
2018-03-27T12:13:19.699Z,5.75
2018-03-27T12:15:47.302Z,5.80
2018-03-27T12:18:14.849Z,5.62
2018-03-27T12:20:42.439Z,5.55
2018-03-27T12:23:10.070Z,5.80
2018-03-27T12:25:37.699Z,6.20
2018-03-27T12:28:05.273Z,6.25
2018-03-27T12:30:32.754Z,5.93
2018-03-27T12:33:00.414Z,6.00
2018-03-27T12:35:27.912Z,8.73
2018-03-27T12:37:55.418Z,5.07
2018-03-27T12:40:23.670Z,5.10
2018-03-27T12:42:51.371Z,4.95
2018-03-27T12:45:19.019Z,4.10
2018-03-27T12:47:47.484Z,6.50
2018-03-27T12:50:14.949Z,3.53
2018-03-27T12:52:43.270Z,4.10
2018-03-27T12:55:10.761Z,4.50
2018-03-27T12:57:38.344Z,4.40
2018-03-27T13:00:06.600Z,4.43
2018-03-27T13:02:34.136Z,5.32
2018-03-27T13:05:01.638Z,4.20
2018-03-27T13:07:29.873Z,3.37
2018-03-27T13:09:57.462Z,4.82
2018-03-27T13:12:25.736Z,2.45
2018-03-27T13:14:53.195Z,2.05
2018-03-27T13:17:21.474Z,2.70
2018-03-27T13:19:49.093Z,2.83
2018-03-27T13:22:16.570Z,3.87
2018-03-27T13:24:44.549Z,3.08
2018-03-27T13:27:12.109Z,3.90
2018-03-27T13:29:39.587Z,4.43
2018-03-27T13:32:07.082Z,3.87
2018-03-27T13:34:34.550Z,5.68
2018-03-27T13:37:02.014Z,4.82
2018-03-27T13:39:29.521Z,3.58
2018-03-27T13:41:56.985Z,3.72
2018-03-27T13:44:24.471Z,4.00
2018-03-27T13:46:52.044Z,9.93
2018-03-27T13:49:19.578Z,5.40
2018-03-27T13:51:47.105Z,5.53
2018-03-27T13:54:14.600Z,5.47
2018-03-27T13:56:42.071Z,5.00
2018-03-27T13:59:09.565Z,4.75
2018-03-27T14:01:38.876Z,5.60
2018-03-27T14:04:07.167Z,6.85
2018-03-27T14:06:34.654Z,4.82
2018-03-27T14:09:02.162Z,5.15
2018-03-27T14:11:30.440Z,7.53
2018-03-27T14:13:58.692Z,4.15
2018-03-27T14:16:26.250Z,6.45
2018-03-27T14:18:53.786Z,7.70
2018-03-27T14:21:21.251Z,8.63
2018-03-27T14:23:48.822Z,6.43
2018-03-27T14:26:17.065Z,6.30
2018-03-27T14:28:44.581Z,7.28
2018-03-27T14:31:12.805Z,5.68
2018-03-27T14:33:40.288Z,10.48
2018-03-27T14:36:07.960Z,9.18
2018-03-27T14:38:36.247Z,13.05
2018-03-27T14:41:04.477Z,22.55
2018-03-27T14:43:31.931Z,26.00
2018-03-27T14:45:59.395Z,15.35
2018-03-27T14:48:26.953Z,17.95
2018-03-27T14:50:54.422Z,5.78
2018-03-27T14:53:21.896Z,4.57
2018-03-27T14:55:49.364Z,4.50
2018-03-27T14:58:16.850Z,4.50
2018-03-27T15:00:44.317Z,4.35
2018-03-27T15:03:11.784Z,4.43
2018-03-27T15:05:39.270Z,5.10
2018-03-27T15:08:06.874Z,8.68
2018-03-27T15:10:35.143Z,4.32
2018-03-27T15:13:03.411Z,4.10
2018-03-27T15:15:30.876Z,3.60
2018-03-27T15:17:58.346Z,7.40
2018-03-27T15:20:25.886Z,6.00
2018-03-27T15:22:53.362Z,7.78
2018-03-27T15:25:20.853Z,8.23
2018-03-27T15:27:48.363Z,6.50
2018-03-27T15:30:15.821Z,4.30
2018-03-27T15:32:44.109Z,3.72
2018-03-27T15:35:11.613Z,3.50
2018-03-27T15:37:39.212Z,4.00
2018-03-27T15:40:06.692Z,4.68
2018-03-27T15:42:34.175Z,4.40
2018-03-27T15:45:01.653Z,4.30
2018-03-27T15:47:29.138Z,5.60
2018-03-27T15:49:56.650Z,5.05
2018-03-27T15:52:24.199Z,3.92
2018-03-27T15:54:51.715Z,4.20
2018-03-27T15:57:19.194Z,5.65
2018-03-27T15:59:46.681Z,4.50
2018-03-27T16:02:15.119Z,3.90
2018-03-27T16:04:42.622Z,3.05
2018-03-27T16:07:10.102Z,3.55
2018-03-27T16:09:37.583Z,3.53
2018-03-27T16:12:05.862Z,3.17
2018-03-27T16:14:33.366Z,4.68
2018-03-27T16:17:00.947Z,3.35
2018-03-27T16:19:28.460Z,5.32
2018-03-27T16:21:56.008Z,3.60
2018-03-27T16:24:23.498Z,3.97
2018-03-27T16:26:50.976Z,4.57
2018-03-27T16:29:18.724Z,3.35
2018-03-27T16:31:46.209Z,4.45
2018-03-27T16:34:13.717Z,3.80
2018-03-27T16:36:41.224Z,3.55
2018-03-27T16:39:08.972Z,5.15
2018-03-27T16:41:37.158Z,4.30
2018-03-27T16:44:04.649Z,5.75
2018-03-27T16:46:32.147Z,4.82
2018-03-27T16:48:59.651Z,3.65
2018-03-27T16:51:27.897Z,4.57
2018-03-27T16:53:55.386Z,3.87
2018-03-27T16:56:23.660Z,4.22
2018-03-27T16:58:51.890Z,3.90
2018-03-27T17:01:19.414Z,5.03
2018-03-27T17:03:46.932Z,4.87
2018-03-27T17:06:14.519Z,3.90
2018-03-27T17:08:42.121Z,5.22
2018-03-27T17:11:10.670Z,3.40
2018-03-27T17:13:38.226Z,3.45
2018-03-27T17:16:05.806Z,4.18
2018-03-27T17:18:33.220Z,4.03
2018-03-27T17:21:00.779Z,4.10
2018-03-27T17:23:29.294Z,4.32
2018-03-27T17:25:57.318Z,5.00
2018-03-27T17:28:26.685Z,4.87
2018-03-27T17:30:56.152Z,5.43
2018-03-27T17:33:30.094Z,4.35
2018-03-27T17:35:58.228Z,5.85
2018-03-27T17:38:31.073Z,5.30
2018-03-27T17:41:07.038Z,5.30
2018-03-27T17:43:37.612Z,5.00
2018-03-27T17:46:18.205Z,5.82
2018-03-27T17:48:48.568Z,5.70
2018-03-27T17:51:25.977Z,5.72
2018-03-27T17:56:39.047Z,8.15
2018-03-27T17:59:06.558Z,6.93
2018-03-27T18:01:34.966Z,6.10
2018-03-27T18:04:07.757Z,6.65
2018-03-27T18:06:36.247Z,5.90
2018-03-27T18:09:04.082Z,8.68
2018-03-27T18:14:14.453Z,7.05
2018-03-27T18:16:44.284Z,8.95
2018-03-27T18:19:11.935Z,6.85
2018-03-27T18:21:40.536Z,6.60
2018-03-27T18:24:08.055Z,8.50
2018-03-27T18:26:35.594Z,6.60
2018-03-27T18:29:03.286Z,7.05
2018-03-27T18:31:31.630Z,6.65
2018-03-27T18:33:59.110Z,10.90
2018-03-27T18:36:26.584Z,7.28
2018-03-27T18:38:54.844Z,9.68
2018-03-27T18:41:22.329Z,10.60
2018-03-27T18:43:49.823Z,10.13
2018-03-27T18:46:17.393Z,7.20
2018-03-27T18:48:44.906Z,9.90
2018-03-27T18:51:12.463Z,10.48
2018-03-27T18:53:39.970Z,8.63
2018-03-27T18:56:07.480Z,7.68
2018-03-27T18:58:34.957Z,8.48
2018-03-27T19:01:02.505Z,8.70
2018-03-27T19:03:29.982Z,7.68
2018-03-27T19:05:57.505Z,10.00
2018-03-27T19:08:25.783Z,8.85
2018-03-27T19:10:53.372Z,9.02
2018-03-27T19:13:21.730Z,7.37
2018-03-27T19:15:49.274Z,8.65
2018-03-27T19:18:17.607Z,8.50
2018-03-27T19:20:45.154Z,12.48
2018-03-27T19:23:12.683Z,12.70
2018-03-27T19:25:40.152Z,9.00
2018-03-27T19:28:08.411Z,8.07
2018-03-27T19:30:35.972Z,8.45
2018-03-27T19:33:03.478Z,7.80
2018-03-27T19:35:30.970Z,14.57
2018-03-27T19:37:59.259Z,10.32
2018-03-27T19:40:27.003Z,11.25
2018-03-27T19:42:55.479Z,9.40
2018-03-27T19:45:23.045Z,9.60
2018-03-27T19:47:52.402Z,9.32
2018-03-27T19:50:19.970Z,9.63
2018-03-27T19:52:47.585Z,12.73
2018-03-27T19:55:16.073Z,9.00
2018-03-27T19:57:43.551Z,11.68
2018-03-27T20:00:11.128Z,12.70
2018-03-27T20:02:38.777Z,13.38
2018-03-27T20:05:06.644Z,9.60
2018-03-27T20:07:34.276Z,10.88
2018-03-27T20:10:01.882Z,11.43
2018-03-27T20:12:29.765Z,10.48
2018-03-27T20:14:58.210Z,9.77
2018-03-27T20:17:25.721Z,9.32
2018-03-27T20:19:57.172Z,11.05
2018-03-27T20:22:24.824Z,10.40
2018-03-27T20:24:52.520Z,10.07
2018-03-27T20:27:21.231Z,13.05
2018-03-27T20:29:50.116Z,14.55
2018-03-27T20:32:17.819Z,11.80
2018-03-27T20:34:45.439Z,13.02
2018-03-27T20:37:13.063Z,11.10
2018-03-27T20:39:41.164Z,10.48
2018-03-27T20:42:08.693Z,13.57
2018-03-27T20:44:36.190Z,11.55
2018-03-27T20:47:04.470Z,12.90
2018-03-27T20:49:32.893Z,10.57
2018-03-27T20:52:00.385Z,13.05
2018-03-27T20:54:28.042Z,12.60
2018-03-27T20:56:55.680Z,13.13
2018-03-27T20:59:23.294Z,12.80
2018-03-27T21:01:50.879Z,13.77
2018-03-27T21:04:18.440Z,12.05
2018-03-27T21:06:46.011Z,13.10
2018-03-27T21:09:13.537Z,13.38
2018-03-27T21:11:41.302Z,13.02
2018-03-27T21:14:08.823Z,11.35
2018-03-27T21:16:36.386Z,14.02
2018-03-27T21:19:04.631Z,13.27
2018-03-27T21:21:32.970Z,13.00
2018-03-27T21:24:00.740Z,13.20
2018-03-27T21:26:28.427Z,14.50
2018-03-27T21:28:56.176Z,13.95
2018-03-27T21:31:23.754Z,13.40
2018-03-27T21:33:52.161Z,13.00
2018-03-27T21:36:20.016Z,16.87
2018-03-27T21:38:47.814Z,15.98
2018-03-27T21:41:15.569Z,17.87
2018-03-27T21:43:43.166Z,15.77
2018-03-27T21:46:10.710Z,15.75
2018-03-27T21:48:38.211Z,15.38
2018-03-27T21:51:05.731Z,14.40
2018-03-27T21:53:33.275Z,13.18
2018-03-27T21:56:00.887Z,13.95
2018-03-27T21:58:28.398Z,13.05
2018-03-27T22:00:55.893Z,12.82
2018-03-27T22:03:24.263Z,14.90
2018-03-27T22:05:51.865Z,12.18
2018-03-27T22:08:19.357Z,13.90
2018-03-27T22:10:46.941Z,12.18
2018-03-27T22:13:15.348Z,17.80
2018-03-27T22:15:42.817Z,11.68
2018-03-27T22:18:10.322Z,11.45
2018-03-27T22:20:37.820Z,16.02
2018-03-27T22:23:05.319Z,12.15
2018-03-27T22:25:32.809Z,14.10
2018-03-27T22:28:00.487Z,11.55
2018-03-27T22:30:27.998Z,12.52
2018-03-27T22:32:55.506Z,13.05
2018-03-27T22:35:23.803Z,15.88
2018-03-27T22:37:51.403Z,13.05
2018-03-27T22:40:18.903Z,13.25
2018-03-27T22:42:46.438Z,13.32
2018-03-27T22:45:13.963Z,12.15
2018-03-27T22:47:41.469Z,11.98
2018-03-27T22:50:08.989Z,12.13
2018-03-27T22:52:36.577Z,13.02
2018-03-27T22:55:04.141Z,13.13
2018-03-27T22:57:31.662Z,13.45
2018-03-27T22:59:59.173Z,11.43
2018-03-27T23:02:26.659Z,12.00
2018-03-27T23:04:54.201Z,12.70
2018-03-27T23:07:21.712Z,14.63
2018-03-27T23:09:49.219Z,10.93
2018-03-27T23:12:16.699Z,11.50
2018-03-27T23:14:44.208Z,14.15
2018-03-27T23:17:11.755Z,12.75
2018-03-27T23:19:39.259Z,14.75
2018-03-27T23:22:06.763Z,11.85
2018-03-27T23:24:34.317Z,14.87
2018-03-27T23:27:01.924Z,12.77
2018-03-27T23:29:29.438Z,12.45
2018-03-27T23:31:56.922Z,12.15
2018-03-27T23:34:24.493Z,13.30
2018-03-27T23:36:52.042Z,17.80
2018-03-27T23:39:20.327Z,14.50
2018-03-27T23:41:48.584Z,13.07
2018-03-27T23:44:16.122Z,13.85
2018-03-27T23:46:43.626Z,13.02
2018-03-27T23:49:11.141Z,13.52
2018-03-27T23:51:38.663Z,11.07
2018-03-27T23:54:06.973Z,14.40
2018-03-27T23:56:34.468Z,11.90
2018-03-27T23:59:02.066Z,12.80
